sensor_id;sensor_type;location;lat;lon;timestamp;temperature;humidity
17659;DHT22;8948;51.534;8.262;2023-04-03T00:02:26;4.20;59.60
17659;DHT22;8948;51.534;8.262;2023-04-03T00:07:27;4.20;59.70
17659;DHT22;8948;51.534;8.262;2023-04-03T00:12:27;4.10;59.80
17659;DHT22;8948;51.534;8.262;2023-04-03T00:17:28;4.00;59.90
17659;DHT22;8948;51.534;8.262;2023-04-03T00:22:29;4.00;60.00
17659;DHT22;8948;51.534;8.262;2023-04-03T00:27:30;3.90;60.20
17659;DHT22;8948;51.534;8.262;2023-04-03T00:32:30;3.90;60.10
17659;DHT22;8948;51.534;8.262;2023-04-03T00:37:31;3.80;60.00
17659;DHT22;8948;51.534;8.262;2023-04-03T00:42:31;3.80;60.40
17659;DHT22;8948;51.534;8.262;2023-04-03T00:47:32;3.80;60.40
17659;DHT22;8948;51.534;8.262;2023-04-03T00:52:33;3.70;60.30
17659;DHT22;8948;51.534;8.262;2023-04-03T00:57:34;3.70;60.50
17659;DHT22;8948;51.534;8.262;2023-04-03T01:02:35;3.70;60.40
17659;DHT22;8948;51.534;8.262;2023-04-03T01:07:36;3.60;60.60
17659;DHT22;8948;51.534;8.262;2023-04-03T01:12:40;3.60;60.70
17659;DHT22;8948;51.534;8.262;2023-04-03T01:23:04;3.30;61.40
17659;DHT22;8948;51.534;8.262;2023-04-03T01:28:10;3.20;61.70
17659;DHT22;8948;51.534;8.262;2023-04-03T01:33:11;3.10;62.20
17659;DHT22;8948;51.534;8.262;2023-04-03T01:38:11;3.10;62.40
17659;DHT22;8948;51.534;8.262;2023-04-03T01:43:12;3.00;62.30
17659;DHT22;8948;51.534;8.262;2023-04-03T01:48:13;3.00;62.60
17659;DHT22;8948;51.534;8.262;2023-04-03T01:53:13;2.90;62.90
17659;DHT22;8948;51.534;8.262;2023-04-03T01:58:14;2.80;63.20
17659;DHT22;8948;51.534;8.262;2023-04-03T02:03:14;2.80;63.10
17659;DHT22;8948;51.534;8.262;2023-04-03T02:08:15;2.80;63.60
17659;DHT22;8948;51.534;8.262;2023-04-03T02:13:18;2.80;63.10
17659;DHT22;8948;51.534;8.262;2023-04-03T02:18:19;2.80;63.00
17659;DHT22;8948;51.534;8.262;2023-04-03T02:23:20;2.70;63.30
17659;DHT22;8948;51.534;8.262;2023-04-03T02:28:20;2.70;63.20
17659;DHT22;8948;51.534;8.262;2023-04-03T02:33:21;2.70;63.30
17659;DHT22;8948;51.534;8.262;2023-04-03T02:38:22;2.70;63.10
17659;DHT22;8948;51.534;8.262;2023-04-03T02:43:23;2.80;63.10
17659;DHT22;8948;51.534;8.262;2023-04-03T02:48:24;2.80;63.00
17659;DHT22;8948;51.534;8.262;2023-04-03T02:53:24;2.80;62.60
17659;DHT22;8948;51.534;8.262;2023-04-03T02:58:25;2.60;63.20
17659;DHT22;8948;51.534;8.262;2023-04-03T03:03:25;2.60;63.60
17659;DHT22;8948;51.534;8.262;2023-04-03T03:08:26;2.50;63.90
17659;DHT22;8948;51.534;8.262;2023-04-03T03:13:27;2.40;64.10
17659;DHT22;8948;51.534;8.262;2023-04-03T03:18:28;2.40;64.20
17659;DHT22;8948;51.534;8.262;2023-04-03T03:23:30;2.30;64.30
17659;DHT22;8948;51.534;8.262;2023-04-03T03:28:32;2.30;64.60
17659;DHT22;8948;51.534;8.262;2023-04-03T03:33:33;2.20;64.70
17659;DHT22;8948;51.534;8.262;2023-04-03T03:38:33;2.20;64.70
17659;DHT22;8948;51.534;8.262;2023-04-03T03:43:34;2.20;64.40
17659;DHT22;8948;51.534;8.262;2023-04-03T03:48:35;2.10;64.10
17659;DHT22;8948;51.534;8.262;2023-04-03T03:53:35;2.10;64.00
17659;DHT22;8948;51.534;8.262;2023-04-03T03:58:36;2.00;64.70
17659;DHT22;8948;51.534;8.262;2023-04-03T04:03:37;2.40;79.90
17659;DHT22;8948;51.534;8.262;2023-04-03T04:08:37;2.80;79.40
17659;DHT22;8948;51.534;8.262;2023-04-03T04:13:38;3.00;72.40
17659;DHT22;8948;51.534;8.262;2023-04-03T04:18:38;2.70;65.70
17659;DHT22;8948;51.534;8.262;2023-04-03T04:23:39;2.40;64.60
17659;DHT22;8948;51.534;8.262;2023-04-03T04:28:40;2.20;64.60
17659;DHT22;8948;51.534;8.262;2023-04-03T04:33:40;2.00;65.00
17659;DHT22;8948;51.534;8.262;2023-04-03T04:38:41;1.90;65.00
17659;DHT22;8948;51.534;8.262;2023-04-03T04:43:42;1.70;65.50
17659;DHT22;8948;51.534;8.262;2023-04-03T04:48:43;1.70;65.70
17659;DHT22;8948;51.534;8.262;2023-04-03T04:53:43;1.70;65.60
17659;DHT22;8948;51.534;8.262;2023-04-03T04:58:44;1.50;65.70
17659;DHT22;8948;51.534;8.262;2023-04-03T05:03:45;1.50;66.00
17659;DHT22;8948;51.534;8.262;2023-04-03T05:08:46;1.50;66.40
17659;DHT22;8948;51.534;8.262;2023-04-03T05:13:46;1.30;66.90
17659;DHT22;8948;51.534;8.262;2023-04-03T05:18:47;1.40;66.60
17659;DHT22;8948;51.534;8.262;2023-04-03T05:23:47;1.50;66.20
17659;DHT22;8948;51.534;8.262;2023-04-03T05:28:48;1.50;66.10
17659;DHT22;8948;51.534;8.262;2023-04-03T05:33:49;1.40;66.50
17659;DHT22;8948;51.534;8.262;2023-04-03T05:38:49;1.50;66.30
17659;DHT22;8948;51.534;8.262;2023-04-03T05:43:50;1.50;66.60
17659;DHT22;8948;51.534;8.262;2023-04-03T05:48:51;1.50;66.80
17659;DHT22;8948;51.534;8.262;2023-04-03T05:54:06;1.90;75.00
17659;DHT22;8948;51.534;8.262;2023-04-03T05:59:08;2.40;69.40
17659;DHT22;8948;51.534;8.262;2023-04-03T06:04:10;2.10;66.00
17659;DHT22;8948;51.534;8.262;2023-04-03T06:09:10;2.10;66.80
17659;DHT22;8948;51.534;8.262;2023-04-03T06:14:11;2.20;65.70
17659;DHT22;8948;51.534;8.262;2023-04-03T06:19:12;2.30;65.10
17659;DHT22;8948;51.534;8.262;2023-04-03T06:24:17;2.20;65.20
17659;DHT22;8948;51.534;8.262;2023-04-03T06:29:18;2.20;65.60
17659;DHT22;8948;51.534;8.262;2023-04-03T06:34:19;2.40;65.10
17659;DHT22;8948;51.534;8.262;2023-04-03T06:39:21;2.50;65.00
17659;DHT22;8948;51.534;8.262;2023-04-03T06:44:25;2.60;64.90
17659;DHT22;8948;51.534;8.262;2023-04-03T06:49:25;2.50;64.70
17659;DHT22;8948;51.534;8.262;2023-04-03T06:54:26;2.60;65.10
17659;DHT22;8948;51.534;8.262;2023-04-03T06:59:27;2.70;64.80
17659;DHT22;8948;51.534;8.262;2023-04-03T07:04:27;2.90;64.70
17659;DHT22;8948;51.534;8.262;2023-04-03T07:09:28;2.90;64.30
17659;DHT22;8948;51.534;8.262;2023-04-03T07:14:28;3.10;64.40
17659;DHT22;8948;51.534;8.262;2023-04-03T07:19:29;3.20;64.60
17659;DHT22;8948;51.534;8.262;2023-04-03T07:24:30;3.40;64.10
17659;DHT22;8948;51.534;8.262;2023-04-03T07:29:30;3.60;63.00
17659;DHT22;8948;51.534;8.262;2023-04-03T07:34:31;3.70;61.10
17659;DHT22;8948;51.534;8.262;2023-04-03T07:39:33;3.70;59.80
17659;DHT22;8948;51.534;8.262;2023-04-03T07:44:33;3.90;60.10
17659;DHT22;8948;51.534;8.262;2023-04-03T07:49:34;4.20;60.10
17659;DHT22;8948;51.534;8.262;2023-04-03T07:54:38;4.50;59.40
17659;DHT22;8948;51.534;8.262;2023-04-03T07:59:39;4.50;57.60
17659;DHT22;8948;51.534;8.262;2023-04-03T08:04:41;4.70;58.10
17659;DHT22;8948;51.534;8.262;2023-04-03T08:09:41;4.90;57.80
17659;DHT22;8948;51.534;8.262;2023-04-03T08:14:42;5.10;57.40
17659;DHT22;8948;51.534;8.262;2023-04-03T08:19:43;5.30;56.40
17659;DHT22;8948;51.534;8.262;2023-04-03T08:24:43;5.60;57.10
17659;DHT22;8948;51.534;8.262;2023-04-03T08:29:44;5.90;56.30
17659;DHT22;8948;51.534;8.262;2023-04-03T08:34:45;6.10;54.20
17659;DHT22;8948;51.534;8.262;2023-04-03T08:39:46;6.10;51.20
17659;DHT22;8948;51.534;8.262;2023-04-03T08:50:19;6.50;49.10
17659;DHT22;8948;51.534;8.262;2023-04-03T08:55:37;6.60;50.10
17659;DHT22;8948;51.534;8.262;2023-04-03T09:06:04;6.90;47.00
17659;DHT22;8948;51.534;8.262;2023-04-03T09:11:25;7.20;44.60
17659;DHT22;8948;51.534;8.262;2023-04-03T09:16:55;7.20;43.60
17659;DHT22;8948;51.534;8.262;2023-04-03T09:22:17;7.40;48.00
17659;DHT22;8948;51.534;8.262;2023-04-03T09:27:19;7.60;45.50
17659;DHT22;8948;51.534;8.262;2023-04-03T09:32:31;7.90;45.10
17659;DHT22;8948;51.534;8.262;2023-04-03T09:42:40;8.30;44.40
17659;DHT22;8948;51.534;8.262;2023-04-03T09:47:41;8.60;44.30
17659;DHT22;8948;51.534;8.262;2023-04-03T09:52:50;8.80;44.70
17659;DHT22;8948;51.534;8.262;2023-04-03T09:57:52;8.80;41.60
17659;DHT22;8948;51.534;8.262;2023-04-03T10:02:57;8.80;43.50
17659;DHT22;8948;51.534;8.262;2023-04-03T10:08:21;8.90;43.70
17659;DHT22;8948;51.534;8.262;2023-04-03T10:13:23;9.30;42.00
17659;DHT22;8948;51.534;8.262;2023-04-03T10:23:45;9.90;43.10
17659;DHT22;8948;51.534;8.262;2023-04-03T10:29:04;10.10;42.40
17659;DHT22;8948;51.534;8.262;2023-04-03T10:34:17;10.30;42.10
17659;DHT22;8948;51.534;8.262;2023-04-03T10:45:27;9.60;42.80
17659;DHT22;8948;51.534;8.262;2023-04-03T10:50:50;10.00;41.90
17659;DHT22;8948;51.534;8.262;2023-04-03T11:01:16;11.00;40.90
17659;DHT22;8948;51.534;8.262;2023-04-03T11:06:18;11.60;41.90
17659;DHT22;8948;51.534;8.262;2023-04-03T11:11:24;11.10;40.10
17659;DHT22;8948;51.534;8.262;2023-04-03T11:16:33;11.10;42.00
17659;DHT22;8948;51.534;8.262;2023-04-03T11:21:56;11.40;39.40
17659;DHT22;8948;51.534;8.262;2023-04-03T11:27:00;11.20;41.50
17659;DHT22;8948;51.534;8.262;2023-04-03T11:37:37;11.20;40.00
17659;DHT22;8948;51.534;8.262;2023-04-03T11:42:45;10.90;39.20
17659;DHT22;8948;51.534;8.262;2023-04-03T11:47:52;9.70;40.10
17659;DHT22;8948;51.534;8.262;2023-04-03T11:52:57;9.20;42.70
17659;DHT22;8948;51.534;8.262;2023-04-03T12:02:58;10.20;41.80
17659;DHT22;8948;51.534;8.262;2023-04-03T12:08:25;11.00;39.80
17659;DHT22;8948;51.534;8.262;2023-04-03T12:13:27;11.80;42.00
17659;DHT22;8948;51.534;8.262;2023-04-03T12:18:43;12.00;40.80
17659;DHT22;8948;51.534;8.262;2023-04-03T12:34:38;12.60;39.40
17659;DHT22;8948;51.534;8.262;2023-04-03T12:45:24;12.90;38.60
17659;DHT22;8948;51.534;8.262;2023-04-03T12:50:29;12.40;37.00
17659;DHT22;8948;51.534;8.262;2023-04-03T12:55:31;12.40;38.50
17659;DHT22;8948;51.534;8.262;2023-04-03T13:00:34;13.10;37.20
17659;DHT22;8948;51.534;8.262;2023-04-03T13:05:35;13.50;38.00
17659;DHT22;8948;51.534;8.262;2023-04-03T13:16:08;13.70;35.40
17659;DHT22;8948;51.534;8.262;2023-04-03T13:21:16;13.70;37.90
17659;DHT22;8948;51.534;8.262;2023-04-03T13:26:19;13.60;35.60
17659;DHT22;8948;51.534;8.262;2023-04-03T13:31:26;13.60;39.10
17659;DHT22;8948;51.534;8.262;2023-04-03T13:36:32;14.30;36.70
17659;DHT22;8948;51.534;8.262;2023-04-03T13:41:36;13.00;37.20
17659;DHT22;8948;51.534;8.262;2023-04-03T13:46:37;11.80;38.30
17659;DHT22;8948;51.534;8.262;2023-04-03T13:51:38;11.50;39.20
17659;DHT22;8948;51.534;8.262;2023-04-03T13:56:40;12.80;39.40
17659;DHT22;8948;51.534;8.262;2023-04-03T14:01:49;13.50;37.60
17659;DHT22;8948;51.534;8.262;2023-04-03T14:06:51;13.90;38.50
17659;DHT22;8948;51.534;8.262;2023-04-03T14:11:54;14.40;34.90
17659;DHT22;8948;51.534;8.262;2023-04-03T14:16:58;14.00;36.80
17659;DHT22;8948;51.534;8.262;2023-04-03T14:22:06;13.60;37.90
17659;DHT22;8948;51.534;8.262;2023-04-03T14:27:17;12.60;36.70
17659;DHT22;8948;51.534;8.262;2023-04-03T14:32:20;12.80;36.60
17659;DHT22;8948;51.534;8.262;2023-04-03T14:37:25;13.10;37.50
17659;DHT22;8948;51.534;8.262;2023-04-03T14:42:30;13.80;37.20
17659;DHT22;8948;51.534;8.262;2023-04-03T14:47:31;13.90;36.20
17659;DHT22;8948;51.534;8.262;2023-04-03T14:52:35;14.40;35.80
17659;DHT22;8948;51.534;8.262;2023-04-03T14:57:36;14.00;34.50
17659;DHT22;8948;51.534;8.262;2023-04-03T15:02:39;13.70;35.80
17659;DHT22;8948;51.534;8.262;2023-04-03T15:07:41;12.90;35.30
17659;DHT22;8948;51.534;8.262;2023-04-03T15:12:43;12.30;36.20
17659;DHT22;8948;51.534;8.262;2023-04-03T15:17:44;13.20;36.90
17659;DHT22;8948;51.534;8.262;2023-04-03T15:22:45;13.20;36.40
17659;DHT22;8948;51.534;8.262;2023-04-03T15:27:46;13.60;36.00
17659;DHT22;8948;51.534;8.262;2023-04-03T15:32:46;13.40;37.80
17659;DHT22;8948;51.534;8.262;2023-04-03T15:37:47;12.60;36.00
17659;DHT22;8948;51.534;8.262;2023-04-03T15:42:48;13.20;35.60
17659;DHT22;8948;51.534;8.262;2023-04-03T15:47:49;13.40;35.70
17659;DHT22;8948;51.534;8.262;2023-04-03T15:52:53;13.20;35.40
17659;DHT22;8948;51.534;8.262;2023-04-03T15:57:58;12.80;35.30
17659;DHT22;8948;51.534;8.262;2023-04-03T16:03:03;13.00;35.80
17659;DHT22;8948;51.534;8.262;2023-04-03T16:08:05;13.40;35.10
17659;DHT22;8948;51.534;8.262;2023-04-03T16:13:07;12.70;35.70
17659;DHT22;8948;51.534;8.262;2023-04-03T16:18:08;13.00;37.20
17659;DHT22;8948;51.534;8.262;2023-04-03T16:23:11;13.10;36.20
17659;DHT22;8948;51.534;8.262;2023-04-03T16:28:13;12.90;35.40
17659;DHT22;8948;51.534;8.262;2023-04-03T16:33:14;12.80;36.30
17659;DHT22;8948;51.534;8.262;2023-04-03T16:38:14;12.80;36.80
17659;DHT22;8948;51.534;8.262;2023-04-03T16:43:16;12.80;37.00
17659;DHT22;8948;51.534;8.262;2023-04-03T16:48:16;12.30;37.70
17659;DHT22;8948;51.534;8.262;2023-04-03T16:53:17;12.00;36.30
17659;DHT22;8948;51.534;8.262;2023-04-03T16:58:18;11.40;36.80
17659;DHT22;8948;51.534;8.262;2023-04-03T17:03:19;11.30;37.20
17659;DHT22;8948;51.534;8.262;2023-04-03T17:08:19;11.20;36.90
17659;DHT22;8948;51.534;8.262;2023-04-03T17:13:20;10.70;38.40
17659;DHT22;8948;51.534;8.262;2023-04-03T17:18:20;10.30;37.30
17659;DHT22;8948;51.534;8.262;2023-04-03T17:23:21;10.00;38.60
17659;DHT22;8948;51.534;8.262;2023-04-03T17:28:23;9.90;38.70
17659;DHT22;8948;51.534;8.262;2023-04-03T17:33:28;9.90;39.30
17659;DHT22;8948;51.534;8.262;2023-04-03T17:38:32;9.80;39.10
17659;DHT22;8948;51.534;8.262;2023-04-03T17:43:34;9.40;39.80
17659;DHT22;8948;51.534;8.262;2023-04-03T17:48:36;9.30;40.20
17659;DHT22;8948;51.534;8.262;2023-04-03T17:53:38;9.40;39.80
17659;DHT22;8948;51.534;8.262;2023-04-03T17:58:39;9.30;40.10
17659;DHT22;8948;51.534;8.262;2023-04-03T18:03:40;8.90;40.60
17659;DHT22;8948;51.534;8.262;2023-04-03T18:09:07;8.80;40.90
17659;DHT22;8948;51.534;8.262;2023-04-03T18:14:09;8.60;41.20
17659;DHT22;8948;51.534;8.262;2023-04-03T18:19:10;8.70;41.70
17659;DHT22;8948;51.534;8.262;2023-04-03T18:24:13;8.40;41.70
17659;DHT22;8948;51.534;8.262;2023-04-03T18:29:15;8.40;42.40
17659;DHT22;8948;51.534;8.262;2023-04-03T18:34:15;8.30;42.10
17659;DHT22;8948;51.534;8.262;2023-04-03T18:39:16;8.30;42.30
17659;DHT22;8948;51.534;8.262;2023-04-03T18:44:20;8.30;42.50
17659;DHT22;8948;51.534;8.262;2023-04-03T18:49:21;8.30;42.40
17659;DHT22;8948;51.534;8.262;2023-04-03T18:54:22;7.80;42.70
17659;DHT22;8948;51.534;8.262;2023-04-03T18:59:23;7.70;42.80
17659;DHT22;8948;51.534;8.262;2023-04-03T19:04:25;7.70;43.30
17659;DHT22;8948;51.534;8.262;2023-04-03T19:09:26;7.60;43.40
17659;DHT22;8948;51.534;8.262;2023-04-03T19:14:27;7.40;43.50
17659;DHT22;8948;51.534;8.262;2023-04-03T19:19:27;7.30;44.10
17659;DHT22;8948;51.534;8.262;2023-04-03T19:24:28;7.40;43.80
17659;DHT22;8948;51.534;8.262;2023-04-03T19:29:28;7.50;44.10
17659;DHT22;8948;51.534;8.262;2023-04-03T19:34:29;7.50;44.20
17659;DHT22;8948;51.534;8.262;2023-04-03T19:39:31;7.50;44.10
17659;DHT22;8948;51.534;8.262;2023-04-03T19:44:35;7.60;43.80
17659;DHT22;8948;51.534;8.262;2023-04-03T19:49:35;7.60;44.00
17659;DHT22;8948;51.534;8.262;2023-04-03T19:54:36;7.50;44.70
17659;DHT22;8948;51.534;8.262;2023-04-03T19:59:37;7.40;44.30
17659;DHT22;8948;51.534;8.262;2023-04-03T20:04:38;7.30;44.30
17659;DHT22;8948;51.534;8.262;2023-04-03T20:09:38;7.20;44.50
17659;DHT22;8948;51.534;8.262;2023-04-03T20:14:39;7.20;44.60
17659;DHT22;8948;51.534;8.262;2023-04-03T20:19:40;7.00;45.20
17659;DHT22;8948;51.534;8.262;2023-04-03T20:24:40;7.00;45.50
17659;DHT22;8948;51.534;8.262;2023-04-03T20:29:42;6.80;45.60
17659;DHT22;8948;51.534;8.262;2023-04-03T20:34:42;6.70;46.30
17659;DHT22;8948;51.534;8.262;2023-04-03T20:39:44;6.50;46.70
17659;DHT22;8948;51.534;8.262;2023-04-03T20:44:44;6.40;47.20
17659;DHT22;8948;51.534;8.262;2023-04-03T20:49:45;6.20;47.60
17659;DHT22;8948;51.534;8.262;2023-04-03T20:54:45;6.10;47.70
17659;DHT22;8948;51.534;8.262;2023-04-03T20:59:46;6.00;47.70
17659;DHT22;8948;51.534;8.262;2023-04-03T21:04:51;6.00;47.70
17659;DHT22;8948;51.534;8.262;2023-04-03T21:20:50;5.70;48.50
17659;DHT22;8948;51.534;8.262;2023-04-03T21:25:51;5.60;48.50
17659;DHT22;8948;51.534;8.262;2023-04-03T21:30:52;5.60;48.80
17659;DHT22;8948;51.534;8.262;2023-04-03T21:35:52;5.50;48.60
17659;DHT22;8948;51.534;8.262;2023-04-03T21:40:57;5.50;48.70
17659;DHT22;8948;51.534;8.262;2023-04-03T21:45:58;5.40;48.70
17659;DHT22;8948;51.534;8.262;2023-04-03T21:51:03;5.40;48.80
17659;DHT22;8948;51.534;8.262;2023-04-03T21:56:04;5.30;49.00
17659;DHT22;8948;51.534;8.262;2023-04-03T22:01:13;5.20;49.10
17659;DHT22;8948;51.534;8.262;2023-04-03T22:06:15;5.20;49.30
17659;DHT22;8948;51.534;8.262;2023-04-03T22:11:16;5.10;49.50
17659;DHT22;8948;51.534;8.262;2023-04-03T22:16:16;5.00;49.40
17659;DHT22;8948;51.534;8.262;2023-04-03T22:21:17;4.90;49.80
17659;DHT22;8948;51.534;8.262;2023-04-03T22:26:18;4.80;49.80
17659;DHT22;8948;51.534;8.262;2023-04-03T22:31:18;4.80;49.70
17659;DHT22;8948;51.534;8.262;2023-04-03T22:36:20;4.80;50.00
17659;DHT22;8948;51.534;8.262;2023-04-03T22:41:20;4.70;50.00
17659;DHT22;8948;51.534;8.262;2023-04-03T22:46:21;4.60;50.20
17659;DHT22;8948;51.534;8.262;2023-04-03T22:51:22;4.60;50.20
17659;DHT22;8948;51.534;8.262;2023-04-03T22:56:22;4.50;50.40
17659;DHT22;8948;51.534;8.262;2023-04-03T23:01:23;4.40;50.70
17659;DHT22;8948;51.534;8.262;2023-04-03T23:06:24;4.40;50.90
17659;DHT22;8948;51.534;8.262;2023-04-03T23:11:25;4.30;51.30
17659;DHT22;8948;51.534;8.262;2023-04-03T23:16:26;4.20;51.40
17659;DHT22;8948;51.534;8.262;2023-04-03T23:21:27;4.10;51.60
17659;DHT22;8948;51.534;8.262;2023-04-03T23:26:27;4.10;51.90
17659;DHT22;8948;51.534;8.262;2023-04-03T23:31:28;3.90;52.30
17659;DHT22;8948;51.534;8.262;2023-04-03T23:36:28;3.90;52.50
17659;DHT22;8948;51.534;8.262;2023-04-03T23:41:29;3.80;52.50
17659;DHT22;8948;51.534;8.262;2023-04-03T23:46:30;3.70;52.60
17659;DHT22;8948;51.534;8.262;2023-04-03T23:51:30;3.70;52.70
17659;DHT22;8948;51.534;8.262;2023-04-03T23:56:31;3.60;53.00
